Time;durP1;ratioP1;P1;durP2;ratioP2;P2;SDS_P1;SDS_P2;PMS_P1;PMS_P2;Temp;Humidity;BMP_temperature;BMP_pressure;BME280_temperature;BME280_humidity;BME280_pressure;Samples;Min_cycle;Max_cycle;Signal;HPM_P1;HPM_P2
2023/11/03 00:00:32;;;;;;;0.55;0.20;;;;;;;12.50;100.00;95789.88;7388293;19;20027;-79
2023/11/03 00:02:59;;;;;;;0.10;0.10;;;;;;;13.40;100.00;95785.22;7390875;19;20374;-79
2023/11/03 00:05:26;;;;;;;0.10;0.10;;;;;;;15.68;100.00;95786.19;7395506;19;20021;-79
2023/11/03 00:07:52;;;;;;;0.30;0.30;;;;;;;13.46;100.00;95794.03;7392953;19;20351;-79
2023/11/03 00:10:19;;;;;;;0.10;0.10;;;;;;;10.84;100.00;95798.78;7393037;19;20011;-79
2023/11/03 00:12:45;;;;;;;0.20;0.10;;;;;;;12.59;100.00;95794.72;7396434;19;20339;-79
2023/11/03 00:15:12;;;;;;;0.95;0.38;;;;;;;13.10;100.00;95797.06;7395040;19;20465;-79
2023/11/03 00:17:38;;;;;;;0.15;0.15;;;;;;;13.38;100.00;95804.63;7396219;19;20006;-79
2023/11/03 00:20:08;;;;;;;0.30;0.30;;;;;;;13.40;100.00;95790.81;7394280;19;20465;-80
2023/11/03 00:22:34;;;;;;;1.25;0.65;;;;;;;13.07;100.00;95798.25;7394801;19;20022;-79
2023/11/03 00:25:01;;;;;;;0.10;0.10;;;;;;;16.04;100.00;95794.00;7394449;19;20021;-79
2023/11/03 00:27:27;;;;;;;0.22;0.15;;;;;;;9.97;100.00;95806.91;7392713;19;20074;-79
2023/11/03 00:29:53;;;;;;;0.10;0.10;;;;;;;12.89;100.00;95802.50;7393619;19;20433;-80
2023/11/03 00:32:19;;;;;;;0.10;0.10;;;;;;;13.67;100.00;95798.94;7392843;19;20375;-79
2023/11/03 00:34:46;;;;;;;0.10;0.10;;;;;;;11.65;100.00;95808.59;7394048;19;20010;-79
2023/11/03 00:37:12;;;;;;;5.10;1.00;;;;;;;10.84;100.00;95817.53;7394235;19;20006;-80
2023/11/03 00:39:40;;;;;;;0.63;0.40;;;;;;;10.35;100.00;95816.38;7394199;19;20011;-79
2023/11/03 00:42:06;;;;;;;0.22;0.10;;;;;;;10.24;100.00;95824.50;7394374;19;20011;-80
2023/11/03 00:44:34;;;;;;;0.10;0.10;;;;;;;10.18;100.00;95824.72;7392127;19;20027;-79
2023/11/03 00:47:00;;;;;;;1.00;0.70;;;;;;;10.10;100.00;95832.38;7395511;19;20011;-79
2023/11/03 00:49:26;;;;;;;0.10;0.10;;;;;;;10.07;100.00;95830.72;7393847;19;20058;-79
2023/11/03 00:51:52;;;;;;;0.30;0.30;;;;;;;9.99;100.00;95821.72;7393853;19;20014;-80
2023/11/03 00:54:18;;;;;;;0.10;0.10;;;;;;;10.13;100.00;95842.38;7391917;19;20014;-80
2023/11/03 00:56:45;;;;;;;0.82;0.50;;;;;;;9.90;100.00;95841.81;7392499;19;20018;-79
2023/11/03 00:59:11;;;;;;;0.10;0.10;;;;;;;10.00;100.00;95842.66;7392325;19;20351;-80
2023/11/03 01:01:38;;;;;;;0.17;0.17;;;;;;;9.84;100.00;95855.19;7391395;19;20018;-80
2023/11/03 01:04:05;;;;;;;0.20;0.20;;;;;;;9.85;100.00;95851.13;7394683;19;20019;-79
2023/11/03 01:06:31;;;;;;;0.10;0.10;;;;;;;9.83;100.00;95853.75;7391773;19;20010;-79
2023/11/03 01:08:57;;;;;;;0.10;0.10;;;;;;;9.80;100.00;95854.88;7394160;19;20036;-79
2023/11/03 01:11:23;;;;;;;0.10;0.03;;;;;;;11.08;100.00;95858.44;7393737;19;20010;-79
2023/11/03 01:13:50;;;;;;;0.10;0.10;;;;;;;11.98;100.00;95851.59;7394252;19;20014;-80
2023/11/03 01:16:17;;;;;;;0.10;0.10;;;;;;;12.60;100.00;95852.00;7393426;19;20121;-83
2023/11/03 01:18:45;;;;;;;0.10;0.00;;;;;;;10.85;100.00;95860.75;7392858;19;20159;-79
2023/11/03 01:21:18;;;;;;;0.15;0.15;;;;;;;10.72;100.00;95861.81;7394814;19;20011;-79
2023/11/03 01:23:48;;;;;;;0.20;0.20;;;;;;;11.98;100.00;95853.63;7391341;19;20017;-79
2023/11/03 01:26:16;;;;;;;0.60;0.10;;;;;;;12.85;100.00;95847.63;7391238;19;20019;-79
2023/11/03 01:28:42;;;;;;;0.80;0.40;;;;;;;12.98;100.00;95852.00;7390387;19;20462;-79
2023/11/03 01:31:10;;;;;;;1.75;0.98;;;;;;;13.08;100.00;95863.22;7392525;19;20011;-80
2023/11/03 01:33:40;;;;;;;0.17;0.10;;;;;;;13.08;100.00;95872.31;7393208;19;20033;-79
2023/11/03 01:36:08;;;;;;;0.10;0.10;;;;;;;13.13;100.00;95862.91;7392400;19;20014;-79
2023/11/03 01:38:34;;;;;;;0.10;0.10;;;;;;;13.11;100.00;95873.19;7390536;19;20386;-79
2023/11/03 01:41:01;;;;;;;1.55;0.68;;;;;;;13.13;100.00;95884.50;7392032;19;20006;-79
2023/11/03 01:43:28;;;;;;;0.20;0.20;;;;;;;13.11;100.00;95890.69;7393377;19;20019;-79
2023/11/03 01:45:56;;;;;;;0.10;0.10;;;;;;;13.09;100.00;95896.13;7391734;19;20070;-79
2023/11/03 01:48:26;;;;;;;0.10;0.10;;;;;;;13.08;100.00;95897.44;7392191;19;20044;-79
2023/11/03 01:50:55;;;;;;;0.10;0.10;;;;;;;13.05;100.00;95907.03;7393399;19;20074;-79
2023/11/03 01:53:21;;;;;;;0.10;0.10;;;;;;;13.05;100.00;95900.69;7390747;19;20012;-79
2023/11/03 01:55:48;;;;;;;3.97;0.32;;;;;;;13.02;100.00;95902.56;7392884;19;20090;-79
2023/11/03 01:58:15;;;;;;;0.10;0.10;;;;;;;12.98;100.00;95909.91;7390565;19;20108;-79
2023/11/03 02:00:41;;;;;;;0.10;0.10;;;;;;;12.93;100.00;95909.63;7392006;19;20058;-79
2023/11/03 02:03:07;;;;;;;0.40;0.40;;;;;;;12.91;100.00;95917.13;7391215;19;20024;-78
2023/11/03 02:05:33;;;;;;;0.10;0.10;;;;;;;12.84;100.00;95918.00;7392457;19;20032;-79
2023/11/03 02:08:00;;;;;;;0.40;0.40;;;;;;;12.83;100.00;95908.16;7390695;19;20022;-79
2023/11/03 02:10:26;;;;;;;0.10;0.10;;;;;;;12.79;100.00;95913.44;7390349;19;20469;-79
2023/11/03 02:12:53;;;;;;;0.17;0.17;;;;;;;12.74;100.00;95911.66;7391568;19;20006;-79
2023/11/03 02:15:19;;;;;;;0.10;0.10;;;;;;;12.73;100.00;95910.22;7390335;19;20010;-79
2023/11/03 02:17:45;;;;;;;0.10;0.10;;;;;;;12.73;100.00;95915.78;7391485;19;20462;-79
2023/11/03 02:20:11;;;;;;;0.10;0.00;;;;;;;12.74;100.00;95912.41;7391655;19;20023;-78
2023/11/03 02:22:38;;;;;;;0.10;0.10;;;;;;;12.80;100.00;95914.91;7389616;19;20505;-79
2023/11/03 02:25:04;;;;;;;0.10;0.03;;;;;;;12.79;100.00;95916.22;7389701;19;20023;-79
2023/11/03 02:27:30;;;;;;;0.10;0.10;;;;;;;12.77;100.00;95916.81;7388342;19;20044;-78
2023/11/03 02:29:57;;;;;;;0.10;0.00;;;;;;;12.75;100.00;95919.47;7390258;19;20039;-79
2023/11/03 02:32:23;;;;;;;1.13;1.10;;;;;;;12.68;100.00;95922.38;7387262;19;20069;-79
2023/11/03 02:34:49;;;;;;;0.10;0.10;;;;;;;11.67;100.00;95916.72;7390592;19;20014;-79
2023/11/03 02:37:15;;;;;;;0.10;0.10;;;;;;;10.40;100.00;95929.44;7391081;19;20003;-79
2023/11/03 02:39:41;;;;;;;0.55;0.55;;;;;;;8.32;100.00;95932.06;7390253;19;19998;-79
2023/11/03 02:42:07;;;;;;;0.10;0.10;;;;;;;10.04;100.00;95940.28;7391841;19;20326;-79
2023/11/03 02:44:34;;;;;;;0.77;0.75;;;;;;;11.94;100.00;95920.97;7388801;19;20010;-78
2023/11/03 02:47:00;;;;;;;0.10;0.00;;;;;;;12.32;100.00;95925.97;7391545;19;20014;-79
2023/11/03 02:49:27;;;;;;;0.10;0.10;;;;;;;12.11;100.00;95922.94;7390178;19;20010;-79
2023/11/03 02:51:53;;;;;;;0.10;0.00;;;;;;;12.56;100.00;95924.28;7389783;19;20070;-79
2023/11/03 02:54:20;;;;;;;0.10;0.10;;;;;;;9.87;100.00;95938.16;7388643;19;20430;-78
2023/11/03 02:56:46;;;;;;;0.10;0.10;;;;;;;9.50;100.00;95943.94;7390938;19;20018;-78
2023/11/03 02:59:12;;;;;;;0.10;0.10;;;;;;;9.40;100.00;95940.28;7390212;19;20010;-79
2023/11/03 03:01:40;;;;;;;0.10;0.10;;;;;;;9.33;100.00;95943.84;7389892;19;20036;-79
2023/11/03 03:04:07;;;;;;;0.10;0.10;;;;;;;9.23;100.00;95937.38;7390479;19;20010;-79
2023/11/03 03:06:33;;;;;;;0.20;0.20;;;;;;;9.18;100.00;95948.13;7388873;19;20347;-79
2023/11/03 03:08:59;;;;;;;0.10;0.00;;;;;;;9.16;100.00;95947.97;7389996;19;20011;-78
2023/11/03 03:11:25;;;;;;;0.10;0.10;;;;;;;9.10;100.00;95943.91;7391249;19;20035;-79
2023/11/03 03:13:51;;;;;;;0.10;0.10;;;;;;;9.08;100.00;95938.19;7390251;19;20086;-79
2023/11/03 03:16:19;;;;;;;0.10;0.10;;;;;;;9.04;100.00;95943.38;7389408;19;20014;-79
2023/11/03 03:18:49;;;;;;;0.20;0.20;;;;;;;9.26;100.00;95947.38;7388665;19;20003;-79
2023/11/03 03:21:17;;;;;;;0.20;0.20;;;;;;;10.08;100.00;95939.88;7390087;19;20393;-79
2023/11/03 03:23:43;;;;;;;1.65;0.30;;;;;;;11.14;100.00;95939.66;7388120;19;20006;-79
2023/11/03 03:26:09;;;;;;;0.35;0.35;;;;;;;8.15;100.00;95952.00;7388235;19;20457;-79
2023/11/03 03:28:36;;;;;;;1.10;0.30;;;;;;;10.40;100.00;95948.91;7387830;19;20016;-79
2023/11/03 03:31:02;;;;;;;0.10;0.03;;;;;;;9.67;100.00;95961.44;7389842;19;20044;-79
2023/11/03 03:33:28;;;;;;;0.10;0.00;;;;;;;10.91;100.00;95955.88;7389458;19;20032;-79
2023/11/03 03:35:54;;;;;;;0.10;0.10;;;;;;;12.00;100.00;95954.16;7390838;19;20013;-79
2023/11/03 03:38:20;;;;;;;0.10;0.10;;;;;;;8.72;100.00;95957.16;7385806;19;20014;-79
2023/11/03 03:40:46;;;;;;;0.13;0.05;;;;;;;7.91;100.00;95962.84;7390443;19;20476;-79
2023/11/03 03:43:13;;;;;;;0.10;0.00;;;;;;;10.51;100.00;95961.63;7390437;19;20010;-79
2023/11/03 03:45:39;;;;;;;0.10;0.10;;;;;;;10.40;100.00;95951.69;7385954;19;20002;-79
2023/11/03 03:48:05;;;;;;;0.20;0.10;;;;;;;10.30;100.00;95950.84;7387653;19;20453;-80
2023/11/03 03:50:31;;;;;;;2.28;0.82;;;;;;;10.52;100.00;95952.72;7387082;19;20032;-79
2023/11/03 03:52:57;;;;;;;0.10;0.00;;;;;;;10.74;100.00;95953.81;7389683;19;20002;-78
2023/11/03 03:55:23;;;;;;;0.10;0.03;;;;;;;11.32;100.00;95952.25;7389509;19;20002;-79
2023/11/03 03:57:49;;;;;;;0.20;0.20;;;;;;;10.97;100.00;95948.75;7390285;19;20015;-79
2023/11/03 04:00:18;;;;;;;0.10;0.10;;;;;;;11.10;100.00;95944.91;7388336;19;20031;-79
2023/11/03 04:02:45;;;;;;;0.10;0.10;;;;;;;9.28;100.00;95966.97;7386481;19;20015;-78
2023/11/03 04:05:12;;;;;;;0.17;0.17;;;;;;;9.18;100.00;95959.25;7387865;19;20758;-79
2023/11/03 04:07:38;;;;;;;0.10;0.10;;;;;;;8.98;100.00;95956.72;7387887;19;20006;-79
2023/11/03 04:10:05;;;;;;;0.10;0.00;;;;;;;9.08;100.00;95961.13;7388581;19;20011;-79
2023/11/03 04:12:31;;;;;;;0.45;0.20;;;;;;;9.09;100.00;95970.94;7388997;19;20078;-79
2023/11/03 04:14:58;;;;;;;0.63;0.38;;;;;;;9.26;100.00;95969.59;7385768;19;20022;-78
2023/11/03 04:17:24;;;;;;;2.10;0.30;;;;;;;15.22;100.00;95971.81;7386556;19;20021;-80
2023/11/03 04:19:50;;;;;;;0.10;0.10;;;;;;;9.36;100.00;95970.47;7387765;19;20044;-79
2023/11/03 04:22:16;;;;;;;0.10;0.10;;;;;;;8.20;100.00;95975.28;7388886;19;20014;-79
2023/11/03 04:24:42;;;;;;;0.47;0.38;;;;;;;8.19;100.00;95979.31;7387880;19;20032;-79
2023/11/03 04:27:08;;;;;;;0.10;0.03;;;;;;;8.01;100.00;95985.97;7387118;19;20086;-79
2023/11/03 04:29:37;;;;;;;0.15;0.15;;;;;;;7.95;100.00;95977.09;7386280;19;20465;-80
2023/11/03 04:32:03;;;;;;;0.10;0.00;;;;;;;7.96;100.00;95981.34;7387915;19;20018;-79
2023/11/03 04:34:29;;;;;;;0.55;0.25;;;;;;;8.11;100.00;95979.34;7387969;19;20007;-79
2023/11/03 04:36:55;;;;;;;0.10;0.00;;;;;;;8.22;100.00;95978.97;7386732;19;20011;-79
2023/11/03 04:39:21;;;;;;;0.20;0.20;;;;;;;8.25;100.00;95986.19;7386435;19;20006;-79
2023/11/03 04:41:47;;;;;;;0.10;0.10;;;;;;;8.45;100.00;95979.00;7386419;19;20015;-79
2023/11/03 04:44:13;;;;;;;0.10;0.10;;;;;;;8.40;100.00;95993.78;7388195;19;20011;-79
2023/11/03 04:46:39;;;;;;;0.30;0.30;;;;;;;7.84;100.00;95983.00;7386313;19;20006;-79
2023/11/03 04:49:07;;;;;;;0.20;0.20;;;;;;;7.67;100.00;95991.09;7385663;19;20010;-79
2023/11/03 04:51:33;;;;;;;0.10;0.10;;;;;;;7.23;100.00;95993.88;7394422;19;20010;-79
2023/11/03 04:53:59;;;;;;;0.10;0.10;;;;;;;7.38;100.00;95996.72;7395538;19;20458;-79
2023/11/03 04:56:25;;;;;;;0.82;0.20;;;;;;;7.23;100.00;96007.72;7392577;19;20062;-79
2023/11/03 04:58:51;;;;;;;0.20;0.20;;;;;;;7.34;100.00;96001.84;7394163;19;20039;-79
2023/11/03 05:01:20;;;;;;;0.10;0.10;;;;;;;7.36;100.00;96013.09;7395149;19;20380;-78
2023/11/03 05:03:46;;;;;;;0.25;0.25;;;;;;;7.32;100.00;96007.19;7395294;19;19999;-79
2023/11/03 05:06:12;;;;;;;0.10;0.10;;;;;;;7.26;100.00;96014.16;7393752;19;20014;-79
2023/11/03 05:08:40;;;;;;;1.05;0.52;;;;;;;7.75;100.00;96003.66;7391483;19;20445;-79
2023/11/03 05:11:06;;;;;;;0.22;0.22;;;;;;;7.31;100.00;96004.97;7394614;19;20373;-80
2023/11/03 05:13:32;;;;;;;0.10;0.10;;;;;;;7.88;100.00;96005.53;7393549;19;20074;-79
2023/11/03 05:15:58;;;;;;;0.10;0.10;;;;;;;7.56;100.00;96008.75;7392758;19;20010;-79
2023/11/03 05:18:24;;;;;;;0.10;0.10;;;;;;;8.10;100.00;95999.28;7392565;19;20015;-79
2023/11/03 05:20:51;;;;;;;0.10;0.10;;;;;;;8.43;100.00;96003.75;7393337;19;20036;-78
2023/11/03 05:23:17;;;;;;;0.20;0.20;;;;;;;8.80;100.00;95999.47;7393306;19;20010;-78
2023/11/03 05:25:43;;;;;;;0.28;0.28;;;;;;;11.30;100.00;95991.81;7392224;19;20025;-79
2023/11/03 05:28:10;;;;;;;0.17;0.10;;;;;;;9.60;100.00;95992.03;7392301;19;20094;-79
2023/11/03 05:30:36;;;;;;;0.10;0.10;;;;;;;8.55;100.00;96002.09;7391484;19;20019;-79
2023/11/03 05:33:03;;;;;;;0.10;0.10;;;;;;;8.16;100.00;95999.84;7393019;19;20027;-79
2023/11/03 05:35:29;;;;;;;0.10;0.10;;;;;;;8.54;100.00;96002.66;7393229;19;20006;-79
2023/11/03 05:37:56;;;;;;;0.10;0.10;;;;;;;8.12;100.00;96002.25;7393466;19;20461;-79
2023/11/03 05:40:22;;;;;;;0.10;0.10;;;;;;;8.24;100.00;96009.66;7392024;19;20018;-79
2023/11/03 05:42:48;;;;;;;0.10;0.10;;;;;;;7.92;100.00;96005.91;7392411;19;20411;-79
2023/11/03 05:45:14;;;;;;;0.25;0.25;;;;;;;8.32;100.00;96015.97;7393549;19;20108;-79
2023/11/03 05:47:40;;;;;;;0.10;0.10;;;;;;;8.21;100.00;96010.00;7392682;19;20016;-79
2023/11/03 05:50:07;;;;;;;0.45;0.35;;;;;;;8.08;100.00;96013.69;7392406;19;20017;-78
2023/11/03 05:52:33;;;;;;;0.10;0.10;;;;;;;8.29;100.00;96008.75;7393293;19;20369;-79
2023/11/03 05:54:59;;;;;;;0.63;0.30;;;;;;;8.39;100.00;96022.81;7391490;19;20007;-79
2023/11/03 05:57:26;;;;;;;0.10;0.10;;;;;;;9.23;100.00;96020.66;7392105;19;20014;-78
2023/11/03 05:59:52;;;;;;;0.10;0.10;;;;;;;9.41;100.00;96025.06;7392931;19;20018;-79
2023/11/03 06:02:18;;;;;;;0.10;0.10;;;;;;;9.29;100.00;96018.44;7391413;19;20473;-78
2023/11/03 06:04:44;;;;;;;0.10;0.10;;;;;;;8.79;100.00;96012.59;7393932;19;20023;-79
2023/11/03 06:07:11;;;;;;;0.65;0.55;;;;;;;8.59;100.00;96021.88;7392617;19;20359;-79
2023/11/03 06:09:38;;;;;;;0.10;0.00;;;;;;;9.39;100.00;96020.06;7389816;19;20074;-78
2023/11/03 06:12:06;;;;;;;0.10;0.10;;;;;;;10.53;100.00;96031.31;7393275;19;20018;-79
2023/11/03 06:14:33;;;;;;;2.40;0.20;;;;;;;11.57;100.00;96022.53;7390796;19;20010;-79
2023/11/03 06:16:59;;;;;;;0.52;0.52;;;;;;;10.32;100.00;96026.13;7393099;19;20393;-79
2023/11/03 06:19:25;;;;;;;0.10;0.10;;;;;;;11.91;100.00;96030.84;7391052;19;20022;-79
2023/11/03 06:21:51;;;;;;;0.45;0.35;;;;;;;10.13;100.00;96037.00;7392207;19;20014;-79
2023/11/03 06:24:17;;;;;;;0.10;0.10;;;;;;;10.71;100.00;96032.13;7392138;19;20006;-79
2023/11/03 06:26:43;;;;;;;0.10;0.10;;;;;;;10.66;100.00;96040.13;7389274;19;20011;-78
2023/11/03 06:29:09;;;;;;;0.10;0.10;;;;;;;10.66;100.00;96040.13;7391071;19;20006;-79
2023/11/03 06:31:35;;;;;;;0.13;0.13;;;;;;;11.22;100.00;96046.84;7391058;19;20474;-79
2023/11/03 06:34:02;;;;;;;0.10;0.10;;;;;;;11.27;100.00;96036.78;7392134;19;20006;-79
2023/11/03 06:36:28;;;;;;;0.20;0.20;;;;;;;12.81;100.00;96039.22;7390520;19;20473;-79
2023/11/03 06:38:54;;;;;;;0.28;0.28;;;;;;;14.27;100.00;96052.13;7390417;19;20007;-79
2023/11/03 06:41:20;;;;;;;0.40;0.40;;;;;;;11.66;100.00;96049.72;7390927;19;20018;-79
2023/11/03 06:43:46;;;;;;;0.10;0.10;;;;;;;11.33;100.00;96062.34;7390553;19;20018;-79
2023/11/03 06:46:13;;;;;;;0.10;0.10;;;;;;;11.07;100.00;96065.75;7391663;19;20010;-79
2023/11/03 06:48:39;;;;;;;0.10;0.10;;;;;;;10.28;100.00;96080.63;7389806;19;20098;-78
2023/11/03 06:51:11;;;;;;;0.10;0.10;;;;;;;12.72;100.00;96076.22;7392010;19;20031;-79
2023/11/03 06:53:38;;;;;;;0.10;0.10;;;;;;;12.72;100.00;96076.22;7389240;19;20022;-78
2023/11/03 06:56:05;;;;;;;0.10;0.00;;;;;;;13.11;100.00;96077.13;7391507;19;20039;-78
2023/11/03 06:58:32;;;;;;;0.10;0.00;;;;;;;11.88;100.00;96087.78;7388122;19;20015;-79
2023/11/03 07:00:59;;;;;;;0.10;0.10;;;;;;;13.46;100.00;96095.88;7389445;19;20006;-78
2023/11/03 07:03:26;;;;;;;0.10;0.10;;;;;;;14.24;100.00;96091.75;7389111;19;20091;-79
2023/11/03 07:05:52;;;;;;;0.10;0.10;;;;;;;13.73;100.00;96106.22;7390075;19;20044;-79
2023/11/03 07:08:19;;;;;;;0.32;0.32;;;;;;;14.13;100.00;96097.94;7388509;19;20043;-78
2023/11/03 07:10:45;;;;;;;0.10;0.10;;;;;;;14.49;100.00;96100.56;7388858;19;20002;-79
2023/11/03 07:13:11;;;;;;;0.28;0.28;;;;;;;13.28;100.00;96110.53;7389251;19;20002;-79
2023/11/03 07:15:37;;;;;;;0.10;0.10;;;;;;;14.53;100.00;96120.44;7390125;19;20343;-79
2023/11/03 07:18:03;;;;;;;0.10;0.10;;;;;;;10.91;100.00;96134.00;7390765;19;20010;-79
2023/11/03 07:20:30;;;;;;;0.10;0.10;;;;;;;10.96;100.00;96139.34;7388549;19;20025;-79
2023/11/03 07:22:57;;;;;;;0.10;0.10;;;;;;;10.74;100.00;96136.75;7389604;19;20018;-79
2023/11/03 07:25:26;;;;;;;0.10;0.10;;;;;;;10.38;100.00;96140.66;7388934;19;20010;-79
2023/11/03 07:27:52;;;;;;;1.17;0.20;;;;;;;10.12;100.00;96140.41;7390805;19;20006;-78
2023/11/03 07:30:19;;;;;;;0.10;0.10;;;;;;;10.07;100.00;96139.28;7389335;19;20115;-79
2023/11/03 07:32:46;;;;;;;0.10;0.10;;;;;;;11.39;100.00;96135.28;7391141;19;20581;-78
2023/11/03 07:47:29;;;;;;;8.98;0.52;;;;;;;11.64;100.00;96141.53;7419911;19;20337;-77
2023/11/03 07:49:56;;;;;;;0.00;0.00;;;;;;;10.20;100.00;96158.53;7425557;19;20022;-77
2023/11/03 07:52:22;;;;;;;1.48;0.57;;;;;;;11.81;100.00;96149.94;7422672;19;20010;-77
2023/11/03 07:54:48;;;;;;;0.10;0.00;;;;;;;10.14;100.00;96155.22;7426120;19;20010;-77
2023/11/03 07:57:16;;;;;;;0.10;0.10;;;;;;;10.39;100.00;96158.81;7424442;19;20006;-77
2023/11/03 07:59:42;;;;;;;0.10;0.10;;;;;;;12.15;100.00;96155.50;7423570;19;20357;-77
2023/11/03 08:02:09;;;;;;;0.10;0.10;;;;;;;11.95;100.00;96158.72;7424641;19;20021;-77
2023/11/03 08:04:35;;;;;;;0.20;0.20;;;;;;;12.51;100.00;96165.28;7424692;19;20025;-77
2023/11/03 08:07:02;;;;;;;0.10;0.10;;;;;;;12.74;100.00;96160.13;7428555;19;20038;-77
2023/11/03 08:09:28;;;;;;;0.10;0.00;;;;;;;13.19;100.00;96173.44;7422145;19;20353;-77
2023/11/03 08:11:55;;;;;;;0.20;0.20;;;;;;;10.43;100.00;96170.31;7425940;19;20031;-77
2023/11/03 08:14:21;;;;;;;0.03;0.03;;;;;;;10.00;100.00;96183.78;7423300;19;20006;-77
2023/11/03 08:16:48;;;;;;;0.10;0.10;;;;;;;12.85;100.00;96167.97;7425443;19;20010;-78
2023/11/03 08:19:14;;;;;;;1.23;0.17;;;;;;;10.56;100.00;96186.75;7424441;19;20014;-77
2023/11/03 08:21:43;;;;;;;0.10;0.10;;;;;;;10.30;100.00;96178.88;7421809;19;20002;-77
2023/11/03 08:24:11;;;;;;;0.38;0.25;;;;;;;10.55;100.00;96185.25;7424560;19;20002;-76
2023/11/03 08:26:38;;;;;;;0.10;0.00;;;;;;;12.37;100.00;96187.22;7423421;19;20390;-77
2023/11/03 08:29:05;;;;;;;0.08;0.00;;;;;;;12.31;100.00;96188.78;7423054;19;20111;-77
2023/11/03 08:31:31;;;;;;;0.20;0.20;;;;;;;13.19;100.00;96184.63;7422486;19;20018;-77
2023/11/03 08:33:57;;;;;;;0.35;0.20;;;;;;;13.18;100.00;96188.75;7422011;19;20010;-79
2023/11/03 08:36:24;;;;;;;0.10;0.10;;;;;;;13.42;100.00;96198.25;7421980;19;20689;-77
2023/11/03 08:38:51;;;;;;;0.10;0.00;;;;;;;13.91;100.00;96194.97;7423106;19;20009;-77
2023/11/03 08:41:19;;;;;;;0.50;0.13;;;;;;;14.12;100.00;96191.63;7423033;19;20025;-77
2023/11/03 08:43:46;;;;;;;0.10;0.00;;;;;;;15.05;100.00;96202.56;7425361;19;20014;-77
2023/11/03 08:46:15;;;;;;;0.10;0.10;;;;;;;14.69;100.00;96191.59;7420195;19;20361;-77
2023/11/03 08:48:41;;;;;;;0.00;0.00;;;;;;;12.12;100.00;96206.88;7421101;19;20361;-77
2023/11/03 08:51:08;;;;;;;0.10;0.10;;;;;;;11.92;100.00;96202.41;7421730;19;20445;-77
2023/11/03 08:53:34;;;;;;;0.10;0.10;;;;;;;12.50;100.00;96205.66;7423775;19;20018;-77
2023/11/03 08:56:01;;;;;;;0.13;0.13;;;;;;;13.24;100.00;96214.34;7422312;19;20014;-77
2023/11/03 08:58:30;;;;;;;0.10;0.10;;;;;;;12.01;100.00;96206.59;7396763;19;20508;-77
2023/11/03 09:00:56;;;;;;;0.10;0.00;;;;;;;13.89;100.00;96213.66;7397635;19;20022;-77
2023/11/03 09:03:22;;;;;;;0.13;0.13;;;;;;;14.42;100.00;96213.47;7395476;19;20483;-77
2023/11/03 09:05:48;;;;;;;0.25;0.08;;;;;;;14.74;100.00;96221.38;7397688;19;20014;-77
2023/11/03 09:08:15;;;;;;;0.20;0.10;;;;;;;15.33;100.00;96211.50;7395315;19;20042;-76
2023/11/03 09:10:41;;;;;;;0.13;0.10;;;;;;;15.07;100.00;96225.13;7395488;19;20638;-77
2023/11/03 09:13:08;;;;;;;0.10;0.10;;;;;;;14.83;100.00;96223.44;7392910;19;20607;-77
2023/11/03 09:15:34;;;;;;;0.73;0.35;;;;;;;15.72;100.00;96230.38;7392987;19;20047;-77
2023/11/03 09:18:00;;;;;;;0.10;0.10;;;;;;;14.96;100.00;96225.78;7395222;19;20031;-77
2023/11/03 09:20:26;;;;;;;0.10;0.00;;;;;;;13.23;100.00;96218.47;7396129;19;20046;-76
2023/11/03 09:22:52;;;;;;;0.10;0.00;;;;;;;12.51;100.00;96226.69;7397312;19;20010;-78
2023/11/03 09:25:18;;;;;;;0.32;0.10;;;;;;;12.72;100.00;96226.97;7394040;19;20054;-76
2023/11/03 09:27:44;;;;;;;0.00;0.00;;;;;;;12.43;100.00;96234.41;7393608;19;20031;-77
2023/11/03 09:30:11;;;;;;;0.10;0.03;;;;;;;12.97;100.00;96222.00;7394593;19;20023;-76
2023/11/03 09:32:38;;;;;;;0.10;0.10;;;;;;;12.77;100.00;96228.78;7393272;19;20036;-76
2023/11/03 09:35:04;;;;;;;0.20;0.20;;;;;;;13.24;100.00;96231.13;7393479;19;20006;-77
2023/11/03 09:37:30;;;;;;;0.10;0.00;;;;;;;14.24;100.00;96231.69;7389757;19;20007;-77
2023/11/03 09:40:00;;;;;;;1.75;0.20;;;;;;;14.00;100.00;96235.47;7390316;19;20027;-77
2023/11/03 09:42:26;;;;;;;0.15;0.15;;;;;;;15.37;100.00;96234.19;7390804;19;20485;-77
2023/11/03 09:44:53;;;;;;;0.00;0.00;;;;;;;14.66;100.00;96229.19;7392283;19;20026;-76
2023/11/03 09:47:19;;;;;;;0.35;0.20;;;;;;;15.10;100.00;96240.78;7390237;19;20007;-78
2023/11/03 09:49:48;;;;;;;0.10;0.08;;;;;;;14.66;100.00;96248.06;7391994;19;20504;-78
2023/11/03 09:52:15;;;;;;;0.10;0.00;;;;;;;15.20;100.00;96249.16;7392562;19;20514;-78
2023/11/03 09:54:41;;;;;;;0.20;0.10;;;;;;;15.60;100.00;96251.25;7391796;19;20006;-77
2023/11/03 09:57:10;;;;;;;0.10;0.10;;;;;;;16.23;100.00;96251.34;7392327;19;20020;-78
2023/11/03 09:59:38;;;;;;;0.10;0.05;;;;;;;16.34;100.00;96252.75;7391237;19;20404;-89
2023/11/03 10:02:09;;;;;;;0.13;0.13;;;;;;;15.53;100.00;96255.69;7393801;19;20074;-78
2023/11/03 10:04:38;;;;;;;0.10;0.00;;;;;;;16.62;100.00;96260.25;7392413;19;20017;-78
2023/11/03 10:07:11;;;;;;;0.10;0.00;;;;;;;16.49;100.00;96252.34;7392688;19;20003;-79
2023/11/03 10:09:42;;;;;;;0.10;0.10;;;;;;;17.52;100.00;96256.88;7389191;19;20029;-78
2023/11/03 10:12:15;;;;;;;0.32;0.25;;;;;;;15.78;100.00;96252.50;7392437;19;20552;-78
2023/11/03 10:14:43;;;;;;;0.08;0.00;;;;;;;16.51;100.00;96256.06;7390358;19;20513;-78
2023/11/03 10:17:09;;;;;;;0.20;0.20;;;;;;;16.79;100.00;96247.97;7390672;19;20532;-79
2023/11/03 10:19:36;;;;;;;0.10;0.00;;;;;;;19.47;100.00;96254.19;7391138;19;20011;-78
2023/11/03 10:22:08;;;;;;;0.30;0.30;;;;;;;16.96;100.00;96253.28;7390982;19;20022;-79
2023/11/03 10:24:36;;;;;;;0.38;0.25;;;;;;;16.12;100.00;96257.63;7391496;19;20024;-77
2023/11/03 10:27:02;;;;;;;0.85;0.75;;;;;;;12.29;100.00;96256.31;7391064;19;20003;-77
2023/11/03 10:29:29;;;;;;;0.10;0.00;;;;;;;15.19;100.00;96242.81;7389157;19;19998;-78
2023/11/03 10:31:56;;;;;;;0.30;0.25;;;;;;;16.99;100.00;96240.84;7390664;19;20010;-78
2023/11/03 10:34:24;;;;;;;0.38;0.00;;;;;;;17.11;100.00;96238.78;7388463;19;20014;-77
2023/11/03 10:36:51;;;;;;;0.47;0.38;;;;;;;16.53;100.00;96242.13;7389914;19;20014;-80
2023/11/03 10:39:18;;;;;;;0.00;0.00;;;;;;;16.33;100.00;96245.69;7390124;19;20014;-76
2023/11/03 10:41:44;;;;;;;1.00;0.60;;;;;;;16.95;100.00;96246.22;7389612;19;20456;-77
2023/11/03 10:44:16;;;;;;;0.52;0.52;;;;;;;15.79;100.00;96251.16;7390580;19;20010;-77
2023/11/03 10:46:53;;;;;;;0.13;0.13;;;;;;;17.65;100.00;96245.00;7388024;19;20035;-76
2023/11/03 10:49:32;;;;;;;0.65;0.52;;;;;;;15.79;100.00;96248.34;7390016;19;20017;-77
2023/11/03 10:52:14;;;;;;;2.65;0.82;;;;;;;17.00;100.00;96251.47;7390000;19;20409;-77
2023/11/03 10:54:58;;;;;;;1.58;0.65;;;;;;;14.19;100.00;96252.28;7391856;19;20011;-76
2023/11/03 10:57:25;;;;;;;3.20;0.40;;;;;;;15.95;100.00;96260.69;7390715;19;20011;-77
2023/11/03 11:00:09;;;;;;;0.10;0.10;;;;;;;13.92;100.00;96268.44;7390285;19;20418;-79
2023/11/03 11:02:53;;;;;;;4.85;1.13;;;;;;;13.92;100.00;96263.59;7388697;19;20013;-77
2023/11/03 11:05:44;;;;;;;0.20;0.20;;;;;;;14.50;100.00;96270.03;7389991;19;20188;-77
2023/11/03 11:08:12;;;;;;;0.10;0.00;;;;;;;14.40;100.00;96263.69;7388431;19;20512;-77
2023/11/03 11:10:42;;;;;;;0.08;0.00;;;;;;;14.65;100.00;96257.78;7389993;19;20018;-78
2023/11/03 11:13:19;;;;;;;1.13;0.45;;;;;;;14.61;100.00;96254.69;7390786;19;20083;-78
2023/11/03 11:16:05;;;;;;;0.08;0.00;;;;;;;16.01;100.00;96275.13;7388801;19;20311;-79
2023/11/03 11:18:40;;;;;;;0.30;0.20;;;;;;;15.96;100.00;96270.56;7386535;19;20016;-79
2023/11/03 11:21:10;;;;;;;0.10;0.10;;;;;;;14.90;100.00;96272.94;7391044;19;20021;-79
2023/11/03 11:23:39;;;;;;;0.00;0.00;;;;;;;15.61;100.00;96281.53;7390358;19;20014;-80
2023/11/03 11:26:18;;;;;;;0.10;0.10;;;;;;;15.56;100.00;96273.41;7387607;19;20038;-79
2023/11/03 11:28:44;;;;;;;0.10;0.05;;;;;;;15.31;100.00;96282.16;7388216;19;20011;-78
2023/11/03 11:31:22;;;;;;;2.45;0.80;;;;;;;15.74;100.00;96280.28;7389514;19;20006;-79
2023/11/03 11:34:25;;;;;;;1.75;0.55;;;;;;;14.94;100.00;96278.84;7388492;19;20457;-79
2023/11/03 11:36:53;;;;;;;0.10;0.00;;;;;;;14.78;100.00;96283.28;7385294;19;20013;-79
2023/11/03 11:39:22;;;;;;;0.10;0.10;;;;;;;15.14;100.00;96280.28;7387210;19;20015;-79